createdAt,value
2022-12-28T00:01:33.687Z,82.48
2022-12-28T00:05:50.777Z,82.73
2022-12-28T00:10:07.855Z,83.13
2022-12-28T00:14:25.352Z,84.08
2022-12-28T00:18:43.345Z,84.04
2022-12-28T00:23:00.527Z,83.61
2022-12-28T00:27:17.424Z,83.22
2022-12-28T00:31:34.770Z,83.12
2022-12-28T00:35:56.240Z,82.67
2022-12-28T00:40:15.423Z,82.42
2022-12-28T00:44:35.971Z,81.97
2022-12-28T00:48:52.975Z,81.88
2022-12-28T00:53:11.014Z,82.36
2022-12-28T00:57:27.941Z,82.17
2022-12-28T01:01:45.045Z,82.02
2022-12-28T01:06:07.071Z,81.97
2022-12-28T01:10:24.071Z,82.47
2022-12-28T01:14:41.154Z,82.06
2022-12-28T01:19:01.421Z,82.10
2022-12-28T01:23:18.539Z,82.81
2022-12-28T01:27:35.434Z,83.60
2022-12-28T01:31:52.575Z,83.08
2022-12-28T01:36:15.835Z,83.58
2022-12-28T01:40:32.881Z,85.14
2022-12-28T01:44:52.936Z,85.46
2022-12-28T01:49:40.338Z,86.71
2022-12-28T01:53:59.553Z,87.48
2022-12-28T01:58:25.261Z,88.19
2022-12-28T02:02:51.555Z,88.51
2022-12-28T02:07:09.312Z,88.75
2022-12-28T02:11:26.543Z,88.79
2022-12-28T02:15:45.096Z,89.16
2022-12-28T02:20:04.015Z,89.38
2022-12-28T02:24:49.908Z,89.83
2022-12-28T02:29:35.419Z,89.60
2022-12-28T02:34:08.810Z,89.72
2022-12-28T02:38:42.175Z,90.01
2022-12-28T02:43:01.626Z,89.90
2022-12-28T02:47:37.666Z,89.43
2022-12-28T02:52:07.585Z,89.23
2022-12-28T02:56:49.794Z,90.01
2022-12-28T03:01:18.840Z,89.85
2022-12-28T03:06:19.664Z,90.24
2022-12-28T03:10:52.076Z,90.16
2022-12-28T03:15:30.163Z,90.06
2022-12-28T03:20:16.934Z,89.94
2022-12-28T03:24:56.022Z,90.05
2022-12-28T03:29:35.312Z,89.72
2022-12-28T03:34:07.128Z,89.55
2022-12-28T03:38:58.059Z,90.07
2022-12-28T03:43:43.027Z,90.20
2022-12-28T03:48:03.032Z,89.77
2022-12-28T03:52:20.207Z,89.64
2022-12-28T03:56:47.654Z,89.47
2022-12-28T04:01:05.955Z,89.73
2022-12-28T04:05:22.963Z,89.93
2022-12-28T04:09:40.079Z,89.98
2022-12-28T04:13:57.166Z,89.99
2022-12-28T04:18:14.245Z,89.64
2022-12-28T04:22:31.130Z,89.99
2022-12-28T04:26:49.318Z,89.92
2022-12-28T04:31:07.974Z,89.59
2022-12-28T04:35:25.063Z,89.90
2022-12-28T04:39:55.451Z,90.07
2022-12-28T04:44:13.705Z,89.93
2022-12-28T04:48:31.328Z,89.92
2022-12-28T04:52:48.372Z,90.11
2022-12-28T04:57:05.250Z,89.83
2022-12-28T05:01:22.618Z,89.54
2022-12-28T05:05:39.546Z,89.79
2022-12-28T05:09:56.654Z,90.18
2022-12-28T05:14:13.650Z,89.94
2022-12-28T05:18:30.943Z,90.22
2022-12-28T05:22:47.784Z,89.93
2022-12-28T05:27:04.906Z,89.91
2022-12-28T05:31:23.431Z,89.57
2022-12-28T05:35:40.575Z,89.14
2022-12-28T05:39:57.604Z,89.48
2022-12-28T05:44:14.634Z,89.80
2022-12-28T05:48:36.111Z,89.81
2022-12-28T05:52:53.263Z,89.95
2022-12-28T05:57:10.117Z,89.09
2022-12-28T06:01:34.699Z,89.62
2022-12-28T06:05:51.626Z,89.21
2022-12-28T06:10:09.349Z,89.21
2022-12-28T06:14:26.280Z,89.43
2022-12-28T06:18:44.343Z,88.60
2022-12-28T06:23:01.233Z,89.35
2022-12-28T06:27:19.237Z,88.73
2022-12-28T06:31:40.124Z,88.64
2022-12-28T06:35:57.303Z,89.11
2022-12-28T06:40:14.869Z,88.85
2022-12-28T06:44:31.717Z,88.82
2022-12-28T06:48:49.468Z,88.69
2022-12-28T06:53:06.314Z,88.80
2022-12-28T06:57:23.382Z,88.38
2022-12-28T07:01:44.584Z,88.52
2022-12-28T07:06:03.827Z,88.28
2022-12-28T07:10:20.680Z,88.59
2022-12-28T07:14:37.744Z,88.00
2022-12-28T07:18:56.029Z,87.91
2022-12-28T07:23:13.145Z,87.93
2022-12-28T07:27:30.028Z,88.11
2022-12-28T07:31:47.174Z,87.71
2022-12-28T07:36:10.262Z,87.70
2022-12-28T07:40:27.673Z,87.94
2022-12-28T07:44:49.149Z,87.53
2022-12-28T07:49:07.327Z,86.42
2022-12-28T07:53:24.151Z,87.17
2022-12-28T07:57:41.255Z,87.58
2022-12-28T08:01:58.320Z,87.18
2022-12-28T08:06:20.405Z,87.07
2022-12-28T08:10:37.268Z,87.23
2022-12-28T08:14:54.341Z,88.46
2022-12-28T08:19:12.303Z,87.52
2022-12-28T08:23:32.240Z,87.82
2022-12-28T08:27:49.125Z,87.18
2022-12-28T08:32:07.737Z,87.56
2022-12-28T08:36:24.884Z,87.80
2022-12-28T08:40:42.309Z,86.60
2022-12-28T08:44:59.155Z,86.02
2022-12-28T08:49:16.235Z,87.22
2022-12-28T08:53:33.940Z,86.07
2022-12-28T08:57:50.789Z,83.39
2022-12-28T09:02:07.883Z,82.35
2022-12-28T09:06:30.821Z,85.30
2022-12-28T09:10:47.894Z,81.01
2022-12-28T09:15:05.358Z,81.07
2022-12-28T09:19:22.660Z,80.87
2022-12-28T09:23:40.793Z,80.96
2022-12-28T09:27:59.646Z,79.27
2022-12-28T09:32:16.661Z,80.04
2022-12-28T09:36:41.039Z,79.06
2022-12-28T09:40:59.068Z,78.77
2022-12-28T09:45:21.906Z,77.73
2022-12-28T09:49:57.422Z,78.29
2022-12-28T09:54:14.460Z,78.61
2022-12-28T09:58:34.049Z,79.12
2022-12-28T10:03:20.903Z,78.50
2022-12-28T10:07:38.151Z,78.55
2022-12-28T10:11:55.523Z,78.04
2022-12-28T10:16:20.921Z,76.87
2022-12-28T10:20:37.937Z,78.42
2022-12-28T10:24:55.074Z,77.99
2022-12-28T10:29:23.538Z,76.89
2022-12-28T10:33:50.341Z,75.48
2022-12-28T10:38:24.041Z,75.02
2022-12-28T10:42:44.390Z,74.98
2022-12-28T10:47:05.296Z,74.41
2022-12-28T10:51:27.897Z,74.43
2022-12-28T10:55:44.870Z,73.46
2022-12-28T11:00:22.564Z,73.43
2022-12-28T11:04:53.984Z,72.39
2022-12-28T11:09:36.484Z,72.25
2022-12-28T11:14:24.633Z,71.86
2022-12-28T11:18:42.000Z,71.88
2022-12-28T11:22:59.086Z,71.17
2022-12-28T11:27:19.900Z,70.73
2022-12-28T11:32:01.314Z,70.50
2022-12-28T11:36:22.917Z,70.35
2022-12-28T11:40:50.613Z,70.24
2022-12-28T11:45:17.247Z,69.63
2022-12-28T11:49:36.034Z,69.10
2022-12-28T11:54:24.075Z,68.41
2022-12-28T11:58:41.017Z,67.00
2022-12-28T12:03:01.536Z,65.55
2022-12-28T12:07:44.645Z,60.55
2022-12-28T12:12:24.606Z,52.76
2022-12-28T12:16:52.336Z,53.64
2022-12-28T12:21:15.844Z,55.06
2022-12-28T12:25:47.483Z,56.94
2022-12-28T12:30:18.428Z,58.66
2022-12-28T12:34:58.908Z,59.62
2022-12-28T12:39:47.360Z,59.89
2022-12-28T12:44:15.177Z,60.07
2022-12-28T12:49:02.426Z,60.42
2022-12-28T12:54:13.380Z,59.85
2022-12-28T12:59:24.769Z,59.65
2022-12-28T13:03:53.132Z,60.90
2022-12-28T13:08:40.481Z,60.74
2022-12-28T13:13:00.866Z,60.93
2022-12-28T13:17:21.947Z,60.46
2022-12-28T13:21:45.881Z,61.62
2022-12-28T13:26:03.637Z,62.10
2022-12-28T13:30:22.962Z,62.41
2022-12-28T13:34:41.221Z,62.84
2022-12-28T13:39:04.686Z,62.27
2022-12-28T13:44:08.795Z,61.48
2022-12-28T13:48:27.061Z,61.87
2022-12-28T13:52:59.878Z,62.84
2022-12-28T13:57:45.854Z,63.10
2022-12-28T14:01:56.270Z,63.79
2022-12-28T14:06:18.916Z,65.05
2022-12-28T14:10:36.791Z,65.73
2022-12-28T14:14:53.957Z,65.80
2022-12-28T14:19:11.888Z,65.90
2022-12-28T14:23:33.078Z,66.33
2022-12-28T14:28:06.502Z,66.59
2022-12-28T14:32:23.736Z,67.23
2022-12-28T14:36:49.889Z,67.80
2022-12-28T14:41:07.252Z,68.39
2022-12-28T14:46:07.011Z,69.27
2022-12-28T14:50:21.253Z,70.03
2022-12-28T14:55:20.121Z,70.74
2022-12-28T14:59:39.730Z,71.43
2022-12-28T15:03:58.873Z,71.54
2022-12-28T15:08:15.901Z,72.10
2022-12-28T15:12:36.187Z,72.58
2022-12-28T15:16:53.119Z,72.88
2022-12-28T15:21:12.972Z,73.19
2022-12-28T15:25:33.971Z,72.89
2022-12-28T15:30:07.837Z,72.30
2022-12-28T15:34:26.729Z,72.71
2022-12-28T15:38:43.922Z,73.22
2022-12-28T15:43:03.630Z,73.30
2022-12-28T15:47:21.274Z,74.14
2022-12-28T15:51:38.245Z,74.41
2022-12-28T15:56:00.940Z,74.72
2022-12-28T16:00:19.145Z,75.00
2022-12-28T16:04:36.196Z,75.46
2022-12-28T16:08:55.368Z,75.28
2022-12-28T16:13:12.332Z,75.74
2022-12-28T16:17:29.413Z,75.74
2022-12-28T16:21:48.490Z,76.24
2022-12-28T16:26:08.491Z,76.42
2022-12-28T16:30:25.482Z,76.90
2022-12-28T16:34:42.717Z,76.57
2022-12-28T16:39:00.110Z,75.87
2022-12-28T16:43:18.725Z,76.45
2022-12-28T16:47:40.883Z,76.55
2022-12-28T16:52:01.467Z,76.28
2022-12-28T16:56:18.386Z,77.35
2022-12-28T17:00:35.813Z,77.23
2022-12-28T17:04:52.710Z,77.61
2022-12-28T17:09:10.204Z,77.24
2022-12-28T17:13:27.130Z,78.58
2022-12-28T17:17:44.497Z,78.32
2022-12-28T17:22:01.863Z,78.12
2022-12-28T17:26:19.311Z,78.38
2022-12-28T17:30:36.284Z,78.54
2022-12-28T17:34:53.732Z,78.53
2022-12-28T17:39:10.691Z,79.15
2022-12-28T17:43:28.719Z,78.60
2022-12-28T17:47:45.883Z,78.60
2022-12-28T17:52:03.425Z,78.70
2022-12-28T17:56:20.775Z,78.65
2022-12-28T18:00:37.709Z,78.48
2022-12-28T18:04:54.752Z,78.75
2022-12-28T18:09:11.855Z,79.64
2022-12-28T18:13:29.018Z,79.65
2022-12-28T18:17:46.010Z,79.91
2022-12-28T18:22:03.523Z,80.09
2022-12-28T18:26:24.032Z,80.35
2022-12-28T18:30:42.640Z,79.94
2022-12-28T18:34:59.542Z,79.78
2022-12-28T18:39:16.649Z,79.85
2022-12-28T18:43:33.563Z,80.34
2022-12-28T18:47:50.614Z,80.24
2022-12-28T18:52:07.875Z,80.40
2022-12-28T18:56:24.970Z,80.72
2022-12-28T19:00:42.073Z,80.96
2022-12-28T19:04:59.054Z,81.31
2022-12-28T19:09:16.351Z,81.88
2022-12-28T19:13:35.978Z,81.97
2022-12-28T19:17:52.998Z,82.69
2022-12-28T19:22:10.074Z,84.32
2022-12-28T19:26:27.107Z,84.82
2022-12-28T19:30:44.215Z,85.20
2022-12-28T19:35:01.029Z,85.46
2022-12-28T19:39:18.225Z,85.31
2022-12-28T19:43:35.997Z,85.21
2022-12-28T19:47:53.043Z,85.35
2022-12-28T19:52:10.552Z,85.90
2022-12-28T19:56:28.255Z,85.75
2022-12-28T20:00:45.117Z,86.82
2022-12-28T20:05:02.386Z,87.12
2022-12-28T20:09:19.304Z,87.54
2022-12-28T20:13:36.420Z,87.82
2022-12-28T20:17:53.466Z,87.84
2022-12-28T20:22:10.690Z,88.10
2022-12-28T20:26:29.141Z,88.01
2022-12-28T20:30:51.051Z,87.94
2022-12-28T20:35:08.037Z,88.20
2022-12-28T20:39:25.092Z,88.36
2022-12-28T20:43:42.065Z,88.87
2022-12-28T20:47:59.061Z,88.53
2022-12-28T20:52:16.175Z,88.33
2022-12-28T20:56:35.110Z,88.64
2022-12-28T21:00:52.354Z,88.59
2022-12-28T21:05:09.853Z,88.62
2022-12-28T21:09:27.004Z,88.35
2022-12-28T21:13:44.869Z,88.64
2022-12-28T21:18:03.050Z,88.31
2022-12-28T21:22:20.094Z,88.06
2022-12-28T21:26:37.500Z,88.34
2022-12-28T21:30:56.060Z,88.71
2022-12-28T21:35:13.254Z,88.47
2022-12-28T21:39:30.073Z,88.47
2022-12-28T21:43:47.157Z,88.57
2022-12-28T21:48:04.356Z,88.50
2022-12-28T21:52:21.906Z,88.71
2022-12-28T21:56:39.926Z,88.38
2022-12-28T22:01:18.983Z,88.46
2022-12-28T22:05:47.727Z,88.16
2022-12-28T22:10:23.853Z,88.63
2022-12-28T22:14:40.942Z,88.08
2022-12-28T22:19:02.738Z,87.42
2022-12-28T22:23:20.597Z,87.97
2022-12-28T22:27:37.514Z,87.88
2022-12-28T22:31:55.935Z,88.04
2022-12-28T22:36:16.769Z,87.76
2022-12-28T22:40:33.647Z,87.51
2022-12-28T22:44:51.538Z,87.72
2022-12-28T22:49:08.363Z,87.76
2022-12-28T22:53:25.411Z,87.84
2022-12-28T22:57:42.445Z,87.76
2022-12-28T23:01:59.926Z,87.79
2022-12-28T23:06:19.510Z,87.89
2022-12-28T23:10:36.560Z,85.91
2022-12-28T23:15:12.437Z,84.42
2022-12-28T23:19:49.306Z,80.55
2022-12-28T23:24:32.371Z,79.47
2022-12-28T23:28:49.508Z,77.55
2022-12-28T23:33:06.471Z,77.35
2022-12-28T23:37:23.579Z,77.08
2022-12-28T23:41:49.622Z,75.82
2022-12-28T23:46:06.675Z,75.32
2022-12-28T23:50:23.841Z,74.69
2022-12-28T23:54:40.705Z,74.37
2022-12-28T23:58:58.020Z,74.65
